Luiz Alves, Brazil
Current Conditions -  °F | °C
As of 2:00 PM on Thursday 18 Dec 2014 (Local Time) from SBNF Reporting Station
Few Clouds Few Clouds  
Wind Chill: 82°   Ceiling: Unl
Heat Index: 88°   Visibility: 6mi
Dew Point: 73°   Wind: 8mph
Humidity: 74%   Direction: 70°ENE
Pressure: 29.8"   Gusts: NA
Location:  26.72°S, 48.93°W
Report Text: SBNF 181600Z 07007KT 9999 FEW020 28/23 Q1009
Loading
Personal Weather Stations






























Interactive Weather Map New forecast layout! Learn more

10-Day Weather Forecast

Advertisements
Track Severe Weather on mobile